Portada
METAR-TAF:

METAR-TAF

Aeroports :

Lihue, Hawaii, Estats Units d'Amèrica

latitud: 21-59-02N, longitud: 159-20-28W, altitud: 45 m

Observació

L'informe es va fer fa 18 minuts, a les 15:53 UTC
Vent 20 kt del Nord-Est
Temperatura 23°C
Humitat 73%
Pressió 1019 hPa
Visibilitat: 16.1 km
Núvols disperses a una alçada de 2200 ft
Núvols disperses a una alçada de 3100 ft
Cel ennuvolat a una alçada de 4300 ft

METAR: PHLI 181553Z 05020KT 10SM SCT022 SCT031 BKN043 23/18 A3009 RMK AO2 SLP185 T02280183 $

Hora: 06:11 (16:11 UTC)

Pronòstic

L'informe es va fer fa 4 hores i 34 minuts, a les 11:37 UTC
Pronòstic vàlid del 18 a les 12 UTC al 19 a les 12 UTC
Vent 18 kt del Nord-Est
Visibilitat: 10 km
Núvols disperses a una alçada de 2500 ft
Cel ennuvolat a una alçada de 3500 ft

TAF: PHLI 181137Z 1812/1912 05018KT P6SM SCT025 BKN035

Observacions i pronòstics meteorològics de més de 4000 aeroports (METAR i TAF).

Les estacions disponibles són els punts grocs i vermells al mapa.

Posi el ratolí al punt desitjat per veure el nom de l'estació.

Feu clic per veure les observacions i els pronòstics meteorològics.

Per canviar el mapa: feu clic els botons verds amb una creu de color negre per apropar; al botó verd amb un guió per allunyar la imatge; o en les fletxes verdes per a mapes adjacents.


METAR-TAF: